createdAt,value
2023-04-12T00:04:19.291Z,5.10
2023-04-12T00:09:23.295Z,5.00
2023-04-12T00:14:27.044Z,4.90
2023-04-12T00:19:32.049Z,4.90
2023-04-12T00:24:35.964Z,4.80
2023-04-12T00:29:39.188Z,4.70
2023-04-12T00:34:43.786Z,4.70
2023-04-12T00:39:47.509Z,4.60
2023-04-12T00:44:50.856Z,4.60
2023-04-12T00:49:55.808Z,4.60
2023-04-12T00:54:59.497Z,4.60
2023-04-12T01:00:04.912Z,4.60
2023-04-12T01:05:14.682Z,4.50
2023-04-12T01:10:41.660Z,4.50
2023-04-12T01:15:55.072Z,4.60
2023-04-12T01:21:08.813Z,4.60
2023-04-12T01:26:33.542Z,4.60
2023-04-12T01:31:43.068Z,4.60
2023-04-12T01:36:49.576Z,4.70
2023-04-12T01:41:52.891Z,4.80
2023-04-12T01:46:58.810Z,4.80
2023-04-12T01:52:09.469Z,4.90
2023-04-12T01:57:13.267Z,4.90
2023-04-12T02:02:18.889Z,5.00
2023-04-12T02:07:24.669Z,5.10
2023-04-12T02:12:27.929Z,5.00
2023-04-12T02:17:33.508Z,5.00
2023-04-12T02:22:37.352Z,5.00
2023-04-12T02:27:40.775Z,5.00
2023-04-12T02:32:45.532Z,5.00
2023-04-12T02:37:56.378Z,5.00
2023-04-12T02:43:03.837Z,5.10
2023-04-12T02:48:08.814Z,5.10
2023-04-12T02:53:12.501Z,5.10
2023-04-12T02:58:18.982Z,5.20
2023-04-12T03:03:28.597Z,5.20
2023-04-12T03:08:36.144Z,5.20
2023-04-12T03:13:39.673Z,5.20
2023-04-12T03:18:44.604Z,5.10
2023-04-12T03:23:48.110Z,5.00
2023-04-12T03:28:59.833Z,4.80
2023-04-12T03:34:08.234Z,4.80
2023-04-12T03:39:14.474Z,4.80
2023-04-12T03:44:18.553Z,4.80
2023-04-12T03:49:24.100Z,4.80
2023-04-12T03:54:28.444Z,4.70
2023-04-12T03:59:38.739Z,4.80
2023-04-12T04:04:44.031Z,4.80
2023-04-12T04:09:51.141Z,4.90
2023-04-12T04:14:54.583Z,4.90
2023-04-12T04:20:12.616Z,5.10
2023-04-12T04:25:17.992Z,5.20
2023-04-12T04:30:27.504Z,5.40
2023-04-12T04:35:32.349Z,5.50
2023-04-12T04:40:55.528Z,5.60
2023-04-12T04:46:07.415Z,5.60
2023-04-12T04:51:12.162Z,5.70
2023-04-12T04:56:15.634Z,5.90
2023-04-12T05:01:20.634Z,5.90
2023-04-12T05:06:27.385Z,6.00
2023-04-12T05:11:32.974Z,6.00
2023-04-12T05:16:37.849Z,6.10
2023-04-12T05:21:44.859Z,6.10
2023-04-12T05:26:48.663Z,6.20
2023-04-12T05:31:52.327Z,6.30
2023-04-12T05:37:00.733Z,6.50
2023-04-12T05:42:09.064Z,6.70
2023-04-12T05:47:12.687Z,7.00
2023-04-12T05:52:17.659Z,7.20
2023-04-12T05:57:22.098Z,7.40
2023-04-12T06:02:26.613Z,7.50
2023-04-12T06:07:32.146Z,7.60
2023-04-12T06:12:35.502Z,7.80
2023-04-12T06:17:39.420Z,7.90
2023-04-12T06:22:44.476Z,7.90
2023-04-12T06:27:53.337Z,7.90
2023-04-12T06:32:59.685Z,8.10
2023-04-12T06:38:04.463Z,8.10
2023-04-12T06:43:08.316Z,8.10
2023-04-12T06:48:12.007Z,8.20
2023-04-12T06:53:16.653Z,8.30
2023-04-12T06:58:19.895Z,8.40
2023-04-12T07:03:24.646Z,8.50
2023-04-12T07:08:30.270Z,8.70
2023-04-12T07:13:33.752Z,8.90
2023-04-12T07:18:37.111Z,9.10
2023-04-12T07:23:41.726Z,9.30
2023-04-12T07:28:44.978Z,9.50
2023-04-12T07:33:48.353Z,9.60
2023-04-12T07:38:55.823Z,9.90
2023-04-12T07:43:59.473Z,10.10
2023-04-12T07:49:03.607Z,10.20
2023-04-12T07:54:08.824Z,10.40
2023-04-12T07:59:12.560Z,10.60
2023-04-12T08:04:16.019Z,10.80
2023-04-12T08:09:21.664Z,11.10
2023-04-12T08:14:24.986Z,11.40
2023-04-12T08:19:28.643Z,11.90
2023-04-12T08:24:33.642Z,12.20
2023-04-12T08:29:36.926Z,12.60
2023-04-12T08:34:40.314Z,13.10
2023-04-12T08:39:44.949Z,13.50
2023-04-12T08:44:48.297Z,13.90
2023-04-12T08:49:52.256Z,14.10
2023-04-12T08:54:57.815Z,14.40
2023-04-12T09:00:01.930Z,14.30
2023-04-12T09:05:06.784Z,14.60
2023-04-12T09:10:11.960Z,15.00
2023-04-12T09:15:18.354Z,15.40
2023-04-12T09:20:27.734Z,15.80
2023-04-12T09:25:41.860Z,15.90
2023-04-12T09:30:45.211Z,15.60
2023-04-12T09:35:49.226Z,15.60
2023-04-12T09:40:55.280Z,15.70
2023-04-12T09:46:13.908Z,15.80
2023-04-12T09:51:26.928Z,15.90
2023-04-12T09:56:33.280Z,15.90
2023-04-12T10:01:37.997Z,15.80
2023-04-12T10:06:42.702Z,15.90
2023-04-12T10:11:50.150Z,15.70
2023-04-12T10:16:56.228Z,15.70
2023-04-12T10:21:59.705Z,15.90
2023-04-12T10:27:04.656Z,16.10
2023-04-12T10:32:21.148Z,16.30
2023-04-12T10:37:44.612Z,16.20
2023-04-12T10:42:49.221Z,16.20
2023-04-12T10:48:02.073Z,16.20
2023-04-12T10:53:27.869Z,16.10
2023-04-12T10:58:58.440Z,16.10
2023-04-12T11:04:14.055Z,16.40
2023-04-12T11:09:22.891Z,16.60
2023-04-12T11:14:36.087Z,16.50
2023-04-12T11:19:41.977Z,16.50
2023-04-12T11:24:46.665Z,16.50
2023-04-12T11:29:54.507Z,16.60
2023-04-12T11:34:59.392Z,16.70
2023-04-12T11:40:08.125Z,16.70
2023-04-12T11:45:18.043Z,16.80
2023-04-12T11:50:30.829Z,16.80
2023-04-12T11:55:34.044Z,16.50
2023-04-12T12:00:38.846Z,16.70
2023-04-12T12:05:43.700Z,16.70
2023-04-12T12:15:58.563Z,15.80
2023-04-12T12:21:01.811Z,15.40
2023-04-12T12:26:18.542Z,14.90
2023-04-12T12:31:25.141Z,14.60
2023-04-12T12:36:33.387Z,14.20
2023-04-12T12:41:37.363Z,14.00
2023-04-12T12:51:48.180Z,13.60
2023-04-12T12:56:51.428Z,13.30
2023-04-12T13:01:56.118Z,12.90
2023-04-12T13:06:59.480Z,12.60
2023-04-12T13:12:03.404Z,12.50
2023-04-12T13:17:08.054Z,12.50
2023-04-12T13:22:11.254Z,12.70
2023-04-12T13:27:15.335Z,12.60
2023-04-12T13:32:20.068Z,12.50
2023-04-12T13:37:23.437Z,12.20
2023-04-12T13:42:26.700Z,11.90
2023-04-12T13:47:31.829Z,11.60
2023-04-12T13:52:35.535Z,11.50
2023-04-12T13:57:39.290Z,11.20
2023-04-12T14:02:44.346Z,11.10
2023-04-12T14:07:49.829Z,11.00
2023-04-12T14:12:53.407Z,10.90
2023-04-12T14:17:58.122Z,10.70
2023-04-12T14:23:01.917Z,10.60
2023-04-12T14:28:05.640Z,10.40
2023-04-12T14:33:10.789Z,10.40
2023-04-12T14:38:14.327Z,10.30
2023-04-12T14:43:17.796Z,10.30
2023-04-12T14:48:23.190Z,10.60
2023-04-12T14:53:27.257Z,10.60
2023-04-12T14:58:31.132Z,10.60
2023-04-12T15:03:36.124Z,10.40
2023-04-12T15:08:43.133Z,10.20
2023-04-12T15:13:46.521Z,10.20
2023-04-12T15:18:52.356Z,10.40
2023-04-12T15:23:56.301Z,10.50
2023-04-12T15:28:59.774Z,10.70
2023-04-12T15:34:04.800Z,10.80
2023-04-12T15:39:08.207Z,10.70
2023-04-12T15:44:13.429Z,10.70
2023-04-12T15:49:18.120Z,10.70
2023-04-12T15:54:21.682Z,10.70
2023-04-12T15:59:26.674Z,10.70
2023-04-12T16:04:33.147Z,10.80
2023-04-12T16:09:37.669Z,10.80
2023-04-12T16:14:40.871Z,10.80
2023-04-12T16:19:45.476Z,11.00
2023-04-12T16:24:48.775Z,11.00
2023-04-12T16:29:51.997Z,11.00
2023-04-12T16:34:56.910Z,11.20
2023-04-12T16:40:01.026Z,11.20
2023-04-12T16:45:05.161Z,11.20
2023-04-12T16:50:12.874Z,11.20
2023-04-12T16:55:16.542Z,11.40
2023-04-12T17:00:24.156Z,11.40
2023-04-12T17:05:29.345Z,11.40
2023-04-12T17:10:33.645Z,11.50
2023-04-12T17:15:37.283Z,11.50
2023-04-12T17:20:42.834Z,11.50
2023-04-12T17:25:46.909Z,11.60
2023-04-12T17:30:50.058Z,11.60
2023-04-12T17:35:54.763Z,11.60
2023-04-12T17:40:57.980Z,11.60
2023-04-12T17:46:03.728Z,11.60
2023-04-12T17:51:09.869Z,11.60
2023-04-12T17:56:13.349Z,11.60
2023-04-12T18:01:17.360Z,11.60
2023-04-12T18:06:23.830Z,11.50
2023-04-12T18:11:27.469Z,11.60
2023-04-12T18:16:31.957Z,11.60
2023-04-12T18:21:36.955Z,11.60
2023-04-12T18:26:40.736Z,11.70
2023-04-12T18:31:44.645Z,11.70
2023-04-12T18:36:49.907Z,11.70
2023-04-12T18:41:53.222Z,11.70
2023-04-12T18:46:56.474Z,11.80
2023-04-12T18:52:01.893Z,11.80
2023-04-12T18:57:05.717Z,11.80
2023-04-12T19:02:09.845Z,11.90
2023-04-12T19:07:15.594Z,11.90
2023-04-12T19:12:19.120Z,11.70
2023-04-12T19:17:24.914Z,11.60
2023-04-12T19:22:29.959Z,11.50
2023-04-12T19:27:33.711Z,11.30
2023-04-12T19:32:37.389Z,11.20
2023-04-12T19:37:41.962Z,11.20
2023-04-12T19:42:45.195Z,11.20
2023-04-12T19:47:48.504Z,11.30
2023-04-12T19:52:53.190Z,11.30
2023-04-12T19:57:56.848Z,11.30
2023-04-12T20:03:00.114Z,11.20
2023-04-12T20:08:04.770Z,10.90
2023-04-12T20:13:14.941Z,10.70
2023-04-12T20:18:18.275Z,10.60
2023-04-12T20:23:22.845Z,10.60
2023-04-12T20:28:26.053Z,10.80
2023-04-12T20:33:29.388Z,10.80
2023-04-12T20:38:35.916Z,10.60
2023-04-12T20:43:45.046Z,10.60
2023-04-12T20:48:51.163Z,10.70
2023-04-12T20:53:58.428Z,10.70
2023-04-12T20:59:02.431Z,10.80
2023-04-12T21:04:06.280Z,10.90
2023-04-12T21:09:11.049Z,11.00
2023-04-12T21:14:14.406Z,11.00
2023-04-12T21:19:18.414Z,11.00
2023-04-12T21:24:23.615Z,10.90
2023-04-12T21:29:27.003Z,10.70
2023-04-12T21:34:32.585Z,10.70
2023-04-12T21:39:39.056Z,10.70
2023-04-12T21:44:43.186Z,10.50
2023-04-12T21:49:46.412Z,10.10
2023-04-12T21:54:51.439Z,9.90
2023-04-12T21:59:55.062Z,9.70
2023-04-12T22:04:58.685Z,9.60
2023-04-12T22:10:05.115Z,9.70
2023-04-12T22:15:12.082Z,10.00
2023-04-12T22:20:15.439Z,10.10
2023-04-12T22:25:20.005Z,10.20
2023-04-12T22:30:23.314Z,10.00
2023-04-12T22:35:27.144Z,9.90
2023-04-12T22:40:31.795Z,9.60
2023-04-12T22:45:35.875Z,9.40
2023-04-12T22:50:39.049Z,9.30
2023-04-12T22:55:45.042Z,9.20
2023-04-12T23:00:50.779Z,9.10
2023-04-12T23:05:55.216Z,8.80
2023-04-12T23:11:02.533Z,8.60
2023-04-12T23:16:06.374Z,8.30
2023-04-12T23:21:11.938Z,8.30
2023-04-12T23:26:16.560Z,8.10
2023-04-12T23:31:19.900Z,8.10
2023-04-12T23:36:25.884Z,8.10
2023-04-12T23:41:32.195Z,8.00
2023-04-12T23:46:35.443Z,8.00
2023-04-12T23:51:38.690Z,8.00
2023-04-12T23:56:43.262Z,8.00
